Grano, North Dakota
Current Conditions -  °F | °C
As of 6:58 AM on Sunday 23 Nov 2014 (Local Time) from KMIB Reporting Station
Overcast Overcast  
Wind Chill: 16°   Ceiling: 4600
Heat Index: 29°   Visibility: 10mi
Dew Point: 19°   Wind: 23mph
Humidity: 66%   Direction: 280°W
Pressure: 29.37"   Gusts: 29mph
Location:  48.6236°N, 101.367°W
Report Text: KMIB 231258Z AUTO 28020G25KT 10SM FEW028 OVC046 M01/M07 A2937 RMK AO2 PK WND 28030/33 SLP967 T10141070
Loading
Personal Weather Stations






























Interactive Weather Map New forecast layout! Learn more

10-Day Weather Forecast

Advertisements
Track Severe Weather on mobile